Time;durP1;ratioP1;P1;durP2;ratioP2;P2;SDS_P1;SDS_P2;PMS_P1;PMS_P2;Temp;Humidity;BMP_temperature;BMP_pressure;BME280_temperature;BME280_humidity;BME280_pressure;Samples;Min_cycle;Max_cycle;Signal;HPM_P1;HPM_P2
2023/05/29 00:01:45;;;;;;;4.37;3.40;;;23.70;45.20;24.40;101195.00;;;;5010820;28;20251;-51
2023/05/29 00:04:12;;;;;;;5.00;3.57;;;23.70;45.30;24.40;101192.00;;;;5015301;28;20204;-50
2023/05/29 00:06:37;;;;;;;3.30;3.00;;;23.60;45.20;24.40;101190.00;;;;5011744;28;20539;-51
2023/05/29 00:09:04;;;;;;;4.10;2.97;;;23.60;45.20;24.40;101197.00;;;;5010313;28;20251;-51
2023/05/29 00:11:29;;;;;;;3.43;3.10;;;23.60;45.20;24.30;101196.00;;;;5010430;28;20242;-51
2023/05/29 00:13:56;;;;;;;4.17;3.10;;;23.60;45.20;24.30;101201.00;;;;5010225;28;20176;-50
2023/05/29 00:16:23;;;;;;;5.30;3.37;;;23.60;45.30;24.30;101191.00;;;;5009242;28;20262;-50
2023/05/29 00:18:49;;;;;;;4.00;3.40;;;23.60;45.20;24.30;101195.00;;;;5010387;28;20199;-51
2023/05/29 00:21:15;;;;;;;4.47;3.37;;;23.50;45.00;24.20;101193.00;;;;5010286;28;20179;-51
2023/05/29 00:23:41;;;;;;;3.83;3.20;;;23.50;45.10;24.20;101189.00;;;;5010577;28;20175;-50
2023/05/29 00:26:07;;;;;;;3.47;3.03;;;23.50;45.10;24.20;101189.00;;;;5010813;28;20188;-51
2023/05/29 00:28:34;;;;;;;3.40;3.10;;;23.50;45.10;24.20;101191.00;;;;5010399;28;20196;-51
2023/05/29 00:31:00;;;;;;;4.63;3.30;;;23.50;45.10;24.20;101192.00;;;;5010350;28;20204;-50
2023/05/29 00:33:26;;;;;;;5.23;3.23;;;23.50;45.00;24.10;101189.00;;;;5010080;28;20702;-50
2023/05/29 00:35:51;;;;;;;3.33;2.87;;;23.50;45.10;24.10;101194.00;;;;5009781;28;20271;-50
2023/05/29 00:38:17;;;;;;;3.37;3.07;;;23.40;45.10;24.10;101192.00;;;;5009922;28;20207;-51
2023/05/29 00:40:43;;;;;;;3.53;3.17;;;23.40;44.80;24.10;101202.00;;;;5010076;28;20180;-50
2023/05/29 00:43:09;;;;;;;3.73;2.80;;;23.40;44.90;24.10;101212.00;;;;5009877;28;20213;-51
2023/05/29 00:45:37;;;;;;;4.50;3.00;;;23.40;45.00;24.10;101207.00;;;;5009586;28;20627;-50
2023/05/29 00:48:04;;;;;;;4.47;3.07;;;23.40;45.00;24.00;101205.00;;;;5009435;28;20205;-50
2023/05/29 00:50:30;;;;;;;3.43;3.13;;;23.40;45.10;24.00;101210.00;;;;4992053;28;20194;-51
2023/05/29 00:52:55;;;;;;;3.10;2.80;;;23.30;45.00;24.00;101218.00;;;;4992090;28;20175;-51
2023/05/29 00:55:21;;;;;;;3.90;3.10;;;23.30;45.10;24.00;101221.00;;;;5009558;28;20258;-52
2023/05/29 00:57:47;;;;;;;3.30;2.90;;;23.30;45.10;24.00;101224.00;;;;4991869;28;20180;-51
2023/05/29 01:00:14;;;;;;;5.27;3.17;;;23.30;45.10;23.90;101226.00;;;;5009778;28;20894;-51
2023/05/29 01:02:44;;;;;;;3.10;2.80;;;23.30;45.10;23.90;101228.00;;;;5009471;28;20642;-51
2023/05/29 01:05:11;;;;;;;4.00;3.20;;;23.30;45.00;23.90;101231.00;;;;5007874;28;20724;-50
2023/05/29 01:07:38;;;;;;;4.50;3.10;;;23.30;45.00;23.90;101239.00;;;;4991792;28;20172;-50
2023/05/29 01:10:05;;;;;;;3.77;3.00;;;23.20;44.70;23.90;101233.00;;;;5009663;28;20206;-50
2023/05/29 01:12:48;;;;;;;3.83;3.13;;;23.20;44.50;23.80;101238.00;;;;5008433;28;20199;-50
2023/05/29 01:15:47;;;;;;;4.33;3.10;;;23.20;44.40;23.80;101212.00;;;;5009076;28;20188;-50
2023/05/29 01:18:34;;;;;;;3.87;3.00;;;23.20;44.50;23.80;101226.00;;;;5008065;28;20199;-50
2023/05/29 01:21:19;;;;;;;3.87;3.00;;;23.20;44.40;23.70;101225.00;;;;5009205;28;20449;-50
2023/05/29 01:24:03;;;;;;;3.53;3.10;;;23.20;44.30;23.70;101225.00;;;;5007557;28;20180;-50
2023/05/29 01:26:52;;;;;;;4.27;3.23;;;23.20;44.30;23.70;101234.00;;;;5012673;28;20760;-51
2023/05/29 01:29:22;;;;;;;4.33;2.90;;;23.20;44.10;23.70;101235.00;;;;5009001;28;20204;-50
2023/05/29 01:31:48;;;;;;;3.40;3.10;;;23.10;44.10;23.60;101244.00;;;;5008062;28;20188;-50
2023/05/29 01:34:14;;;;;;;3.43;3.00;;;23.10;43.90;23.60;101243.00;;;;4975572;28;20175;-51
2023/05/29 01:36:40;;;;;;;3.17;2.87;;;23.10;44.10;23.60;101247.00;;;;5009115;28;20251;-50
2023/05/29 01:39:06;;;;;;;3.30;3.00;;;23.10;44.20;23.60;101247.00;;;;5008773;28;20808;-51
2023/05/29 01:41:32;;;;;;;3.00;2.70;;;23.10;44.30;23.60;101259.00;;;;4991417;28;20550;-50
2023/05/29 01:43:58;;;;;;;3.20;2.90;;;23.00;44.40;23.60;101253.00;;;;5007266;28;20278;-50
2023/05/29 01:46:25;;;;;;;4.27;2.97;;;23.00;44.60;23.50;101260.00;;;;5007207;28;20199;-50
2023/05/29 01:48:51;;;;;;;3.30;3.00;;;23.00;44.50;23.50;101258.00;;;;5008877;28;20215;-50
2023/05/29 01:51:16;;;;;;;4.40;3.10;;;23.00;44.50;23.50;101257.00;;;;5013301;28;20246;-50
2023/05/29 01:53:42;;;;;;;3.63;3.07;;;23.00;44.40;23.50;101260.00;;;;5010126;28;20190;-51
2023/05/29 01:56:08;;;;;;;4.30;3.07;;;23.00;44.40;23.50;101265.00;;;;5008576;28;20195;-51
2023/05/29 01:58:35;;;;;;;4.43;3.20;;;23.00;44.20;23.50;101271.00;;;;4990885;28;20210;-50
2023/05/29 02:01:01;;;;;;;4.03;3.17;;;23.00;44.20;23.40;101267.00;;;;5008373;28;20299;-50
2023/05/29 02:03:30;;;;;;;4.33;3.03;;;22.90;44.20;23.40;101266.00;;;;5007386;28;20247;-51
2023/05/29 02:05:57;;;;;;;4.63;3.17;;;22.90;44.20;23.30;101265.00;;;;5013614;28;20675;-51
2023/05/29 02:08:23;;;;;;;3.47;3.00;;;22.80;44.20;23.30;101269.00;;;;5009722;28;20222;-51
2023/05/29 02:10:49;;;;;;;3.20;2.90;;;22.90;44.30;23.30;101277.00;;;;5008626;28;20606;-50
2023/05/29 02:13:14;;;;;;;3.17;2.87;;;22.80;44.30;23.30;101283.00;;;;5008299;28;20595;-51
2023/05/29 02:15:40;;;;;;;3.57;3.10;;;22.80;44.20;23.30;101277.00;;;;5008271;28;20175;-50
2023/05/29 02:18:12;;;;;;;4.03;3.37;;;22.80;44.30;23.30;101280.00;;;;5006780;28;20240;-51
2023/05/29 02:20:38;;;;;;;3.97;3.10;;;22.80;44.30;23.20;101270.00;;;;5007185;28;20207;-51
2023/05/29 02:23:04;;;;;;;3.30;3.00;;;22.80;44.30;23.20;101290.00;;;;5008226;28;20211;-50
2023/05/29 02:25:30;;;;;;;3.53;3.23;;;22.70;44.20;23.20;101283.00;;;;5008214;28;20286;-50
2023/05/29 02:27:56;;;;;;;4.57;3.73;;;22.70;44.20;23.10;101287.00;;;;5008162;28;20176;-50
2023/05/29 02:30:22;;;;;;;3.93;3.40;;;22.70;44.20;23.10;101285.00;;;;5008964;28;20261;-50
2023/05/29 02:32:47;;;;;;;3.47;3.17;;;22.70;44.30;23.10;101292.00;;;;5008433;28;20261;-51
2023/05/29 02:35:14;;;;;;;4.50;3.77;;;22.70;44.40;23.10;101279.00;;;;5008796;28;20267;-51
2023/05/29 02:37:41;;;;;;;4.83;3.70;;;22.60;44.50;23.00;101284.00;;;;5012340;28;20232;-49
2023/05/29 02:40:10;;;;;;;4.57;3.63;;;22.60;44.40;23.00;101290.00;;;;5012269;28;20211;-49
2023/05/29 02:42:36;;;;;;;4.63;3.43;;;22.60;44.40;23.00;101296.00;;;;5012333;28;20237;-49
2023/05/29 02:45:02;;;;;;;5.63;3.27;;;22.60;44.50;23.00;101303.00;;;;5011816;28;20219;-49
2023/05/29 02:47:27;;;;;;;4.60;3.60;;;22.50;44.50;22.90;101309.00;;;;5010671;28;20566;-50
2023/05/29 02:49:53;;;;;;;5.63;3.23;;;22.60;44.60;22.90;101299.00;;;;5011764;28;20211;-50
2023/05/29 02:52:19;;;;;;;4.90;3.67;;;22.50;44.60;22.90;101300.00;;;;5011876;28;20183;-50
2023/05/29 02:54:45;;;;;;;4.07;3.50;;;22.50;44.70;22.90;101306.00;;;;5011781;28;20751;-51
2023/05/29 02:57:10;;;;;;;4.57;3.33;;;22.50;44.80;22.80;101304.00;;;;5011643;28;20211;-51
2023/05/29 02:59:37;;;;;;;4.77;3.13;;;22.50;44.80;22.80;101300.00;;;;5011678;28;20199;-49
2023/05/29 03:02:02;;;;;;;5.10;3.50;;;22.50;44.90;22.80;101306.00;;;;5011904;28;20187;-50
2023/05/29 03:04:28;;;;;;;5.17;3.40;;;22.40;44.80;22.80;101310.00;;;;5008079;28;20240;-49
2023/05/29 03:06:54;;;;;;;4.50;3.50;;;22.40;44.80;22.70;101313.00;;;;5010754;28;20772;-50
2023/05/29 03:09:20;;;;;;;5.40;3.40;;;22.40;44.80;22.70;101306.00;;;;5015718;28;20200;-50
2023/05/29 03:11:47;;;;;;;5.97;3.70;;;22.40;44.80;22.70;101293.00;;;;5011525;28;20183;-50
2023/05/29 03:14:13;;;;;;;5.17;3.47;;;22.40;44.80;22.70;101291.00;;;;5011667;28;20191;-50
2023/05/29 03:16:40;;;;;;;5.77;3.40;;;22.30;44.70;22.60;101300.00;;;;5011008;28;20188;-50
2023/05/29 03:19:09;;;;;;;6.03;3.60;;;22.30;44.70;22.60;101299.00;;;;5011200;28;20230;-51
2023/05/29 03:21:35;;;;;;;5.40;3.40;;;22.30;44.70;22.60;101309.00;;;;5014131;28;20266;-49
2023/05/29 03:24:02;;;;;;;4.10;3.07;;;22.20;44.60;22.60;101250.00;;;;5011043;28;20254;-51
2023/05/29 03:26:28;;;;;;;5.30;3.53;;;22.20;44.80;22.60;101306.00;;;;5010890;28;20202;-50
2023/05/29 03:28:55;;;;;;;8.17;3.27;;;22.20;44.90;22.50;101305.00;;;;5009661;28;20203;-51
2023/05/29 03:31:21;;;;;;;5.63;3.23;;;22.20;44.90;22.50;101297.00;;;;5011050;28;20180;-51
2023/05/29 03:33:47;;;;;;;6.97;3.90;;;22.20;45.00;22.50;101301.00;;;;5010835;28;20241;-50
2023/05/29 03:36:13;;;;;;;7.87;3.53;;;22.20;45.30;22.50;101298.00;;;;5010483;28;21410;-51
2023/05/29 03:38:39;;;;;;;5.93;3.20;;;22.10;45.00;22.50;101302.00;;;;5010868;28;20262;-51
2023/05/29 03:41:05;;;;;;;5.03;3.23;;;22.10;45.00;22.40;101302.00;;;;5010717;28;20229;-51
2023/05/29 03:43:30;;;;;;;5.37;3.47;;;22.10;45.10;22.40;101302.00;;;;4987770;28;20454;-51
2023/05/29 03:45:56;;;;;;;6.30;3.90;;;22.00;45.00;22.40;101294.00;;;;5007383;28;20690;-51
2023/05/29 03:48:22;;;;;;;6.63;3.90;;;22.10;45.00;22.30;101297.00;;;;5010691;28;20567;-51
2023/05/29 03:50:48;;;;;;;6.73;3.93;;;22.00;45.00;22.30;101295.00;;;;5013841;28;20191;-51
2023/05/29 03:53:14;;;;;;;6.97;4.07;;;22.00;44.90;22.30;101298.00;;;;5015579;28;20184;-51
2023/05/29 03:55:40;;;;;;;6.17;3.73;;;21.90;45.00;22.20;101307.00;;;;5018915;28;20211;-50
2023/05/29 03:58:06;;;;;;;7.10;3.83;;;21.90;45.00;22.20;101310.00;;;;5012044;28;20239;-51
2023/05/29 04:00:32;;;;;;;6.27;3.97;;;21.90;45.10;22.20;101313.00;;;;5012086;28;20187;-50
2023/05/29 04:02:57;;;;;;;6.27;3.67;;;21.90;45.10;22.20;101328.00;;;;5012029;28;20573;-55
2023/05/29 04:05:23;;;;;;;6.70;3.73;;;21.90;45.10;22.20;101310.00;;;;5013584;28;20207;-50
2023/05/29 04:07:49;;;;;;;5.37;3.77;;;21.90;45.10;22.20;101311.00;;;;5015567;28;20183;-50
2023/05/29 04:10:15;;;;;;;6.60;3.90;;;21.80;45.00;22.20;101320.00;;;;5011784;28;20176;-50
2023/05/29 04:12:41;;;;;;;6.30;4.13;;;21.80;45.10;22.10;101308.00;;;;5011393;28;20171;-50
2023/05/29 04:15:07;;;;;;;8.13;4.40;;;21.90;45.10;22.10;101307.00;;;;5009589;28;20191;-50
2023/05/29 04:17:33;;;;;;;6.43;4.10;;;21.80;45.00;22.10;101325.00;;;;5010933;28;20591;-51
2023/05/29 04:19:59;;;;;;;6.30;4.07;;;21.80;45.10;22.10;101320.00;;;;5011624;28;20215;-51
2023/05/29 04:22:25;;;;;;;5.53;3.57;;;21.80;45.20;22.00;101325.00;;;;5011047;28;20194;-50
2023/05/29 04:24:50;;;;;;;6.83;4.13;;;21.80;45.20;22.00;101325.00;;;;5011352;28;20207;-51
2023/05/29 04:27:17;;;;;;;7.90;4.20;;;21.70;45.30;22.00;101329.00;;;;5009914;28;20238;-51
2023/05/29 04:29:43;;;;;;;9.90;4.13;;;21.70;45.40;22.00;101328.00;;;;5009991;28;20622;-51
2023/05/29 04:32:11;;;;;;;7.13;3.73;;;21.70;45.70;22.00;101335.00;;;;5010946;28;20266;-50
2023/05/29 04:34:39;;;;;;;7.07;4.20;;;21.70;45.70;21.90;101337.00;;;;5010765;28;20572;-50
2023/05/29 04:37:06;;;;;;;7.27;3.80;;;21.70;45.70;21.90;101348.00;;;;5010835;28;20245;-51
2023/05/29 04:39:31;;;;;;;8.27;4.27;;;21.60;45.70;21.90;101346.00;;;;5010867;28;20265;-51
2023/05/29 04:41:58;;;;;;;6.40;4.17;;;21.60;45.70;21.90;101352.00;;;;5010677;28;20195;-50
2023/05/29 04:44:26;;;;;;;7.43;4.03;;;21.60;45.90;21.90;101346.00;;;;5010437;28;20211;-50
2023/05/29 04:46:52;;;;;;;9.33;4.00;;;21.60;45.70;21.90;101349.00;;;;5011057;28;20172;-51
2023/05/29 04:49:18;;;;;;;7.57;4.07;;;21.60;45.70;21.80;101352.00;;;;5010448;28;20250;-51
2023/05/29 04:51:44;;;;;;;6.23;4.00;;;21.60;45.80;21.80;101355.00;;;;5009677;28;20721;-51
2023/05/29 04:54:10;;;;;;;6.30;3.83;;;21.50;45.70;21.80;101364.00;;;;5010514;28;20217;-50
2023/05/29 04:56:36;;;;;;;5.67;3.50;;;21.50;45.80;21.80;101361.00;;;;5008488;28;20213;-50
2023/05/29 04:59:02;;;;;;;6.03;3.70;;;21.50;45.70;21.80;101363.00;;;;5009352;28;20674;-50
2023/05/29 05:01:28;;;;;;;7.23;3.80;;;21.50;45.80;21.80;101368.00;;;;5009707;28;20194;-50
2023/05/29 05:03:57;;;;;;;5.30;3.50;;;21.50;45.80;21.80;101357.00;;;;5010100;28;20176;-53
2023/05/29 05:06:25;;;;;;;4.87;3.40;;;21.50;45.80;21.70;101355.00;;;;5009321;28;20226;-50
2023/05/29 05:08:51;;;;;;;5.80;3.47;;;21.50;46.00;21.70;101355.00;;;;5009322;28;20238;-50
2023/05/29 05:11:18;;;;;;;5.93;3.60;;;21.40;45.90;21.70;101365.00;;;;4988365;28;20179;-50
2023/05/29 05:13:44;;;;;;;7.10;3.60;;;21.40;45.90;21.70;101380.00;;;;5005766;28;20290;-50
2023/05/29 05:16:10;;;;;;;7.50;3.97;;;21.40;45.90;21.70;101366.00;;;;5008795;28;20219;-50
2023/05/29 05:18:36;;;;;;;5.13;3.30;;;21.40;45.90;21.70;101362.00;;;;5014062;28;20227;-51
2023/05/29 05:21:06;;;;;;;5.47;3.67;;;21.40;45.80;21.70;101377.00;;;;5009254;28;20886;-50
2023/05/29 05:23:32;;;;;;;6.00;3.53;;;21.40;45.90;21.60;101372.00;;;;5008990;28;20175;-51
2023/05/29 05:25:57;;;;;;;6.80;3.63;;;21.40;45.90;21.60;101369.00;;;;5008589;28;20237;-50
2023/05/29 05:28:23;;;;;;;5.57;3.50;;;21.30;45.90;21.60;101386.00;;;;5008955;28;20213;-50
2023/05/29 05:30:49;;;;;;;6.17;3.57;;;21.40;46.00;21.60;101383.00;;;;5013144;28;20176;-51
2023/05/29 05:33:15;;;;;;;6.07;3.43;;;21.30;46.00;21.60;101387.00;;;;5008666;28;20625;-50
2023/05/29 05:35:40;;;;;;;6.70;3.47;;;21.30;46.00;21.60;101391.00;;;;5008498;28;20187;-51
2023/05/29 05:38:06;;;;;;;5.87;3.50;;;21.30;46.00;21.60;101393.00;;;;5008737;28;20190;-50
2023/05/29 05:40:32;;;;;;;6.37;3.67;;;21.30;46.10;21.50;101394.00;;;;5008521;28;20202;-51
2023/05/29 05:42:58;;;;;;;5.17;3.33;;;21.30;46.00;21.50;101399.00;;;;5007925;28;20233;-50
2023/05/29 05:45:23;;;;;;;7.90;3.97;;;21.30;46.20;21.50;101392.00;;;;5008053;28;20234;-50
2023/05/29 05:47:49;;;;;;;4.93;3.37;;;21.30;46.20;21.50;101392.00;;;;5009027;28;20210;-50
2023/05/29 05:50:15;;;;;;;6.73;3.70;;;21.20;46.10;21.50;101397.00;;;;5009221;28;20195;-50
2023/05/29 05:52:41;;;;;;;6.60;3.50;;;21.20;46.10;21.50;101391.00;;;;5012122;28;20726;-50
2023/05/29 05:55:07;;;;;;;7.13;3.70;;;21.20;46.10;21.40;101397.00;;;;5008353;28;20199;-51
2023/05/29 05:57:33;;;;;;;6.03;3.60;;;21.20;46.10;21.40;101386.00;;;;5006012;28;20192;-50
2023/05/29 06:00:00;;;;;;;6.97;3.87;;;21.20;46.10;21.40;101384.00;;;;5008753;28;20305;-51
2023/05/29 06:02:25;;;;;;;8.33;3.93;;;21.20;46.20;21.40;101391.00;;;;5008336;28;20246;-50
2023/05/29 06:04:51;;;;;;;6.40;3.73;;;21.10;46.20;21.40;101386.00;;;;5016630;28;20562;-56
2023/05/29 06:07:17;;;;;;;6.20;3.43;;;21.10;46.30;21.30;101385.00;;;;5013993;28;20665;-50
2023/05/29 06:09:43;;;;;;;6.47;3.60;;;21.10;46.40;21.30;101328.00;;;;5009522;28;20191;-50
2023/05/29 06:12:09;;;;;;;5.47;3.37;;;21.10;46.50;21.30;101397.00;;;;5008716;28;20182;-50
2023/05/29 06:14:35;;;;;;;5.40;3.20;;;21.10;46.60;21.30;101400.00;;;;5008679;28;20186;-51
2023/05/29 06:17:01;;;;;;;6.63;3.40;;;21.10;46.50;21.30;101407.00;;;;5007904;28;20581;-50
2023/05/29 06:19:27;;;;;;;5.80;3.07;;;21.10;46.60;21.30;101412.00;;;;5008698;28;20207;-50
2023/05/29 06:21:52;;;;;;;4.70;3.17;;;21.10;46.60;21.30;101415.00;;;;5008513;28;20330;-51
2023/05/29 06:24:18;;;;;;;6.73;3.60;;;21.10;46.70;21.30;101414.00;;;;5007423;28;20231;-50
2023/05/29 06:26:44;;;;;;;7.80;3.90;;;21.00;46.60;21.30;101420.00;;;;5007098;28;20703;-50
2023/05/29 06:29:10;;;;;;;6.03;3.53;;;21.00;46.60;21.20;101419.00;;;;5008252;28;20236;-50
2023/05/29 06:31:35;;;;;;;7.20;3.53;;;21.00;46.60;21.20;101404.00;;;;5008148;28;20182;-51
2023/05/29 06:34:01;;;;;;;6.70;3.30;;;21.00;46.60;21.20;101417.00;;;;5007539;28;20652;-50
2023/05/29 06:36:27;;;;;;;6.17;3.60;;;21.00;46.80;21.20;101409.00;;;;5008513;28;20189;-50
2023/05/29 06:38:53;;;;;;;6.03;3.43;;;21.00;46.90;21.20;101415.00;;;;5007774;28;20202;-50
2023/05/29 06:41:18;;;;;;;5.90;3.73;;;21.00;46.90;21.20;101411.00;;;;5008192;28;20213;-50
2023/05/29 06:43:44;;;;;;;5.77;3.20;;;21.00;47.00;21.20;101410.00;;;;5007250;28;20189;-50
2023/05/29 06:46:10;;;;;;;5.63;3.40;;;21.00;47.00;21.20;101410.00;;;;5007670;28;20228;-50
2023/05/29 06:48:36;;;;;;;7.93;3.50;;;21.00;46.90;21.10;101414.00;;;;5006804;28;20635;-50
2023/05/29 06:51:08;;;;;;;7.07;3.73;;;21.00;47.00;21.10;101415.00;;;;5008510;28;20174;-50
2023/05/29 06:53:40;;;;;;;5.37;3.23;;;20.90;47.10;21.10;101420.00;;;;5010141;28;20191;-49
2023/05/29 06:56:06;;;;;;;5.07;3.30;;;20.90;47.10;21.10;101412.00;;;;5007656;28;20206;-51
2023/05/29 06:58:32;;;;;;;5.97;3.50;;;20.90;47.10;21.10;101422.00;;;;5006717;28;20262;-51
2023/05/29 07:00:58;;;;;;;6.17;3.40;;;20.90;47.10;21.10;101415.00;;;;5008199;28;20237;-51
2023/05/29 07:03:27;;;;;;;5.27;3.23;;;20.90;47.20;21.10;101416.00;;;;4997944;28;20243;-51
2023/05/29 07:05:52;;;;;;;4.17;2.90;;;20.90;47.20;21.10;101417.00;;;;5005696;28;20624;-51
2023/05/29 07:08:18;;;;;;;4.13;2.93;;;20.80;47.20;21.10;101426.00;;;;5007765;28;20205;-50
2023/05/29 07:10:44;;;;;;;6.33;3.20;;;20.80;47.50;21.10;101427.00;;;;5006484;28;20793;-51
2023/05/29 07:13:10;;;;;;;5.53;3.13;;;20.90;47.80;21.00;101413.00;;;;5007262;28;20182;-51
2023/05/29 07:15:38;;;;;;;4.73;3.37;;;20.80;47.60;21.00;101416.00;;;;5007211;28;20185;-50
2023/05/29 07:18:04;;;;;;;5.43;3.10;;;20.80;47.60;21.00;101427.00;;;;5007456;28;20218;-51
2023/05/29 07:20:29;;;;;;;4.90;3.00;;;20.80;47.80;21.00;101413.00;;;;5007529;28;20211;-51
2023/05/29 07:22:55;;;;;;;6.53;3.33;;;20.80;47.80;21.00;101407.00;;;;5009404;28;20181;-49
2023/05/29 07:25:21;;;;;;;9.17;3.37;;;20.80;48.00;21.00;101420.00;;;;5010865;28;20192;-50
2023/05/29 07:27:46;;;;;;;8.47;3.73;;;20.70;48.20;21.00;101417.00;;;;5011204;28;20199;-51
2023/05/29 07:30:12;;;;;;;7.73;3.90;;;20.70;48.30;21.00;101423.00;;;;5010556;28;20234;-51
2023/05/29 07:32:38;;;;;;;4.07;3.30;;;20.70;48.50;21.00;101409.00;;;;5011191;28;20179;-50
2023/05/29 07:35:05;;;;;;;5.87;3.40;;;20.70;48.60;20.90;101425.00;;;;5009507;28;20179;-49
2023/05/29 07:37:31;;;;;;;5.53;3.37;;;20.80;48.70;20.90;101419.00;;;;5010768;28;20628;-50
2023/05/29 07:39:57;;;;;;;5.43;3.30;;;20.70;48.60;20.90;101421.00;;;;5010128;28;20229;-50
2023/05/29 07:42:23;;;;;;;3.97;3.27;;;20.70;48.50;20.90;101423.00;;;;5010927;28;20214;-50
2023/05/29 07:44:48;;;;;;;6.97;3.80;;;20.60;48.50;20.90;101426.00;;;;5011215;28;20197;-50
2023/05/29 07:47:14;;;;;;;5.57;3.03;;;20.70;48.80;20.90;101430.00;;;;5011492;28;20230;-50
2023/05/29 07:49:40;;;;;;;6.63;3.60;;;20.60;48.70;20.90;101440.00;;;;5011907;28;20239;-50
2023/05/29 07:52:06;;;;;;;5.40;3.50;;;20.60;48.80;20.90;101441.00;;;;5017227;28;20640;-50
2023/05/29 07:54:32;;;;;;;4.80;3.20;;;20.60;49.40;20.90;101445.00;;;;5015859;28;20187;-50
2023/05/29 07:57:09;;;;;;;4.90;3.20;;;20.60;48.90;21.00;101444.00;;;;5011753;28;20710;-51
2023/05/29 07:59:36;;;;;;;6.10;3.20;;;20.50;48.90;21.00;101448.00;;;;5011955;28;20205;-50
2023/05/29 08:02:03;;;;;;;5.33;3.37;;;20.50;49.00;21.00;101458.00;;;;5012095;28;20230;-49
2023/05/29 08:04:29;;;;;;;4.67;3.50;;;20.50;49.10;20.90;101458.00;;;;5011301;28;20203;-50
2023/05/29 08:06:55;;;;;;;5.73;3.30;;;20.50;49.10;21.00;101449.00;;;;5015405;28;20178;-50
2023/05/29 08:09:21;;;;;;;6.10;3.30;;;20.50;49.10;20.90;101450.00;;;;5015693;28;20319;-50
2023/05/29 08:11:47;;;;;;;5.30;3.00;;;20.50;49.10;20.90;101457.00;;;;5012079;28;20642;-49
2023/05/29 08:14:14;;;;;;;5.47;3.47;;;20.50;49.20;20.90;101466.00;;;;5011327;28;20567;-50
2023/05/29 08:16:40;;;;;;;5.97;3.40;;;20.50;49.30;20.90;101457.00;;;;5011741;28;20207;-50
2023/05/29 08:19:05;;;;;;;5.47;3.23;;;20.50;49.40;20.90;101452.00;;;;5011903;28;20603;-49
2023/05/29 08:21:31;;;;;;;4.97;3.20;;;20.50;49.40;20.90;101439.00;;;;5012004;28;20236;-49
2023/05/29 08:23:58;;;;;;;4.73;3.13;;;20.50;49.40;20.90;101460.00;;;;5010030;28;20638;-49
2023/05/29 08:26:24;;;;;;;4.47;2.90;;;20.50;49.70;21.00;101451.00;;;;5011255;28;20183;-49
2023/05/29 08:28:50;;;;;;;4.97;3.23;;;20.50;49.80;21.00;101454.00;;;;5011610;28;20671;-49
2023/05/29 08:31:16;;;;;;;5.90;3.53;;;20.50;49.80;21.00;101447.00;;;;5011688;28;20179;-49
2023/05/29 08:33:42;;;;;;;5.00;3.27;;;20.50;49.90;21.00;101456.00;;;;5013581;28;20220;-50
2023/05/29 08:36:08;;;;;;;5.57;3.23;;;20.50;49.80;21.00;101445.00;;;;5012500;28;20179;-51
2023/05/29 08:38:35;;;;;;;6.20;3.63;;;20.50;50.10;21.00;101450.00;;;;5011374;28;20218;-48
2023/05/29 08:41:00;;;;;;;4.63;3.20;;;20.50;50.80;21.00;101454.00;;;;5011182;28;20198;-49
2023/05/29 08:43:30;;;;;;;5.33;3.20;;;20.50;50.10;21.00;101457.00;;;;5010083;28;20184;-49
2023/05/29 08:46:00;;;;;;;4.97;3.30;;;20.50;49.90;21.00;101457.00;;;;5010551;28;20211;-49
2023/05/29 08:48:26;;;;;;;5.83;3.50;;;20.50;50.10;21.00;101453.00;;;;5009893;28;20200;-49
2023/05/29 08:50:54;;;;;;;5.33;3.50;;;20.50;50.10;21.00;101449.00;;;;4993621;28;20183;-49
2023/05/29 08:53:21;;;;;;;6.70;3.50;;;20.50;50.10;21.00;101452.00;;;;5007255;28;20285;-49
2023/05/29 08:55:48;;;;;;;5.97;3.30;;;20.50;50.20;21.10;101453.00;;;;5010347;28;20176;-49
2023/05/29 08:58:14;;;;;;;6.13;3.53;;;20.50;50.20;20.90;101452.00;;;;5009176;28;20757;-50
2023/05/29 09:00:40;;;;;;;6.47;3.27;;;20.50;50.40;21.10;101458.00;;;;5010466;28;20589;-49
2023/05/29 09:03:06;;;;;;;5.80;3.50;;;20.50;50.20;21.10;101466.00;;;;5010020;28;20184;-48
2023/05/29 09:05:33;;;;;;;6.70;3.77;;;20.50;50.20;21.00;101460.00;;;;5009685;28;20320;-50
2023/05/29 09:07:59;;;;;;;6.37;3.73;;;20.50;50.60;21.00;101455.00;;;;5009640;28;20177;-49
2023/05/29 09:10:27;;;;;;;5.50;3.27;;;20.50;50.60;21.00;101455.00;;;;5010376;28;20203;-50
2023/05/29 09:12:53;;;;;;;6.90;3.70;;;20.50;50.50;20.90;101446.00;;;;5009769;28;20183;-50
2023/05/29 09:15:23;;;;;;;6.43;3.47;;;20.40;50.50;21.00;101445.00;;;;5008692;28;20180;-50
2023/05/29 09:17:58;;;;;;;9.23;4.10;;;20.50;50.60;21.10;101450.00;;;;5008962;28;20659;-50
2023/05/29 09:20:24;;;;;;;7.43;3.20;;;20.60;50.70;21.20;101450.00;;;;5002424;28;20182;-50
2023/05/29 09:22:57;;;;;;;6.07;3.10;;;20.70;51.10;21.20;101446.00;;;;5010245;28;20181;-51
2023/05/29 09:25:24;;;;;;;6.27;3.43;;;20.70;51.10;21.30;101444.00;;;;5009450;28;20196;-51
2023/05/29 09:28:05;;;;;;;5.37;3.30;;;20.80;51.10;21.30;101450.00;;;;5009532;28;20603;-52
2023/05/29 09:30:44;;;;;;;5.30;2.90;;;20.80;51.30;21.40;101442.00;;;;5009735;28;20555;-51
2023/05/29 09:33:14;;;;;;;6.53;3.60;;;20.80;51.20;21.40;101461.00;;;;5009364;28;20621;-50
2023/05/29 09:35:41;;;;;;;4.23;3.03;;;20.80;51.30;21.50;101464.00;;;;5009375;28;20184;-50
2023/05/29 09:38:08;;;;;;;6.30;3.33;;;20.90;51.30;21.50;101462.00;;;;5009455;28;20268;-49
2023/05/29 09:40:37;;;;;;;4.23;2.90;;;20.80;51.40;21.50;101464.00;;;;5009570;28;20269;-49
2023/05/29 09:43:19;;;;;;;4.63;3.00;;;20.90;52.10;21.50;101462.00;;;;5009351;28;20186;-49
2023/05/29 09:45:47;;;;;;;6.20;3.20;;;20.90;52.00;21.60;101467.00;;;;5007974;28;20232;-51
2023/05/29 09:48:23;;;;;;;5.23;3.10;;;20.90;52.00;21.60;101455.00;;;;5009440;28;20202;-51
2023/05/29 09:50:49;;;;;;;5.70;3.00;;;21.00;52.10;21.60;101459.00;;;;5008281;28;20692;-49
2023/05/29 09:53:24;;;;;;;8.70;3.40;;;21.00;52.00;21.70;101468.00;;;;5014543;28;20181;-50
2023/05/29 09:55:55;;;;;;;6.23;3.13;;;21.00;52.00;21.70;101472.00;;;;5014870;28;20186;-50
2023/05/29 09:58:22;;;;;;;4.87;2.87;;;21.00;51.90;21.70;101462.00;;;;5001191;28;20208;-50
2023/05/29 10:00:49;;;;;;;6.90;2.90;;;21.00;51.90;21.70;101459.00;;;;5009816;28;20187;-50
2023/05/29 10:03:15;;;;;;;5.17;3.03;;;21.00;51.90;21.70;101457.00;;;;5009199;28;20185;-49
2023/05/29 10:05:41;;;;;;;6.70;3.27;;;21.00;51.90;21.70;101469.00;;;;5008693;28;20680;-50
2023/05/29 10:08:18;;;;;;;4.00;2.70;;;21.00;51.90;21.80;101467.00;;;;5012092;28;20186;-49
2023/05/29 10:10:48;;;;;;;4.50;2.90;;;21.10;52.00;21.80;101470.00;;;;5012994;28;20243;-51
2023/05/29 10:13:14;;;;;;;4.37;3.00;;;21.10;52.00;21.80;101465.00;;;;5008820;28;20559;-50
2023/05/29 10:15:46;;;;;;;5.47;2.90;;;21.10;52.00;21.80;101455.00;;;;5011699;28;20216;-50
2023/05/29 10:18:28;;;;;;;5.27;2.87;;;21.10;52.10;21.80;101469.00;;;;4991449;28;20208;-50
2023/05/29 10:20:58;;;;;;;4.83;2.90;;;21.10;52.20;21.80;101445.00;;;;5008101;28;20185;-50
2023/05/29 10:23:25;;;;;;;4.10;2.73;;;21.10;52.20;21.80;101471.00;;;;4992190;28;20183;-51
2023/05/29 10:25:53;;;;;;;5.17;2.83;;;21.10;52.30;21.80;101466.00;;;;4990677;28;20217;-50
2023/05/29 10:28:23;;;;;;;5.47;3.30;;;21.10;52.40;21.80;101465.00;;;;5007403;28;20604;-49
2023/05/29 10:31:05;;;;;;;7.90;4.00;;;21.10;52.10;21.80;101460.00;;;;4991598;28;20189;-50
2023/05/29 10:34:13;;;;;;;5.23;3.50;;;21.00;51.90;21.80;101451.00;;;;5007226;28;20189;-50
2023/05/29 10:36:44;;;;;;;7.57;3.90;;;21.10;52.20;21.80;101435.00;;;;5007857;28;20209;-52
2023/05/29 10:39:10;;;;;;;6.63;3.70;;;21.10;52.10;21.80;101446.00;;;;4991225;28;20212;-51
2023/05/29 10:41:40;;;;;;;6.37;3.90;;;21.10;52.20;21.80;101457.00;;;;5007442;28;20211;-51
2023/05/29 10:44:31;;;;;;;8.87;3.90;;;21.10;52.50;21.80;101462.00;;;;5007875;28;20197;-50
2023/05/29 10:47:00;;;;;;;7.07;3.67;;;21.10;52.20;21.80;101452.00;;;;5008542;28;20184;-50
2023/05/29 10:49:26;;;;;;;7.07;3.90;;;21.10;52.10;21.80;101446.00;;;;5008427;28;20774;-50